createdAt,value
2022-08-09T00:01:54.634Z,18.10
2022-08-09T00:04:35.084Z,18.10
2022-08-09T00:07:07.848Z,18.10
2022-08-09T00:09:40.057Z,18.10
2022-08-09T00:12:09.122Z,18.10
2022-08-09T00:14:56.831Z,18.10
2022-08-09T00:18:05.315Z,18.00
2022-08-09T00:20:15.479Z,18.00
2022-08-09T00:22:47.113Z,18.00
2022-08-09T00:25:17.749Z,18.00
2022-08-09T00:27:52.422Z,18.00
2022-08-09T00:30:25.267Z,18.00
2022-08-09T00:32:55.540Z,18.00
2022-08-09T00:35:25.053Z,17.90
2022-08-09T00:37:53.832Z,17.90
2022-08-09T00:40:22.827Z,17.90
2022-08-09T00:44:20.205Z,17.80
2022-08-09T00:45:53.848Z,17.80
2022-08-09T00:48:23.155Z,17.80
2022-08-09T00:50:52.387Z,17.70
2022-08-09T00:53:23.975Z,17.70
2022-08-09T00:56:05.073Z,17.60
2022-08-09T00:58:39.263Z,17.60
2022-08-09T01:01:16.268Z,17.60
2022-08-09T01:03:56.782Z,17.50
2022-08-09T01:06:53.730Z,17.50
2022-08-09T01:09:36.978Z,17.40
2022-08-09T01:12:14.458Z,17.40
2022-08-09T01:14:53.976Z,17.40
2022-08-09T01:17:34.291Z,17.40
2022-08-09T01:20:08.013Z,17.30
2022-08-09T01:23:04.980Z,17.30
2022-08-09T01:26:02.463Z,17.30
2022-08-09T01:28:33.072Z,17.30
2022-08-09T01:31:06.104Z,17.20
2022-08-09T01:33:42.420Z,17.20
2022-08-09T01:36:15.312Z,17.20
2022-08-09T01:38:49.390Z,17.20
2022-08-09T01:41:26.012Z,17.10
2022-08-09T01:43:59.323Z,17.10
2022-08-09T01:46:31.704Z,17.10
2022-08-09T01:49:10.107Z,17.10
2022-08-09T01:51:44.618Z,17.00
2022-08-09T01:54:27.156Z,17.00
2022-08-09T01:57:04.195Z,16.90
2022-08-09T01:59:50.820Z,16.90
2022-08-09T02:02:30.099Z,16.90
2022-08-09T02:05:05.827Z,16.90
2022-08-09T02:08:38.748Z,16.80
2022-08-09T02:10:40.801Z,16.80
2022-08-09T02:13:13.041Z,16.80
2022-08-09T02:15:49.023Z,16.80
2022-08-09T02:18:23.599Z,16.80
2022-08-09T02:20:57.577Z,16.80
2022-08-09T02:23:42.775Z,16.70
2022-08-09T02:26:26.869Z,16.70
2022-08-09T02:29:00.121Z,16.70
2022-08-09T02:31:34.239Z,16.70
2022-08-09T02:34:13.387Z,16.70
2022-08-09T02:36:56.523Z,16.70
2022-08-09T02:39:41.755Z,16.70
2022-08-09T02:42:17.234Z,16.70
2022-08-09T02:44:49.738Z,16.70
2022-08-09T02:47:22.874Z,16.70
2022-08-09T02:50:01.617Z,16.70
2022-08-09T02:52:37.711Z,16.70
2022-08-09T02:55:20.938Z,16.70
2022-08-09T02:58:00.490Z,16.70
2022-08-09T03:00:57.626Z,16.70
2022-08-09T03:04:12.296Z,16.70
2022-08-09T03:06:22.274Z,16.70
2022-08-09T03:08:52.836Z,16.70
2022-08-09T03:12:04.859Z,16.70
2022-08-09T03:14:13.641Z,16.70
2022-08-09T03:16:47.472Z,16.70
2022-08-09T03:19:58.557Z,16.70
2022-08-09T03:22:12.195Z,16.70
2022-08-09T03:25:05.830Z,16.70
2022-08-09T03:27:45.457Z,16.70
2022-08-09T03:30:30.144Z,16.70
2022-08-09T03:33:12.808Z,16.70
2022-08-09T03:36:12.849Z,16.70
2022-08-09T03:38:43.361Z,16.60
2022-08-09T03:41:15.270Z,16.60
2022-08-09T03:44:03.125Z,16.60
2022-08-09T03:46:34.469Z,16.60
2022-08-09T03:49:08.104Z,16.60
2022-08-09T03:51:54.081Z,16.60
2022-08-09T03:54:31.809Z,16.60
2022-08-09T03:57:04.519Z,16.60
2022-08-09T03:59:54.448Z,16.60
2022-08-09T04:02:28.261Z,16.60
2022-08-09T04:05:06.563Z,16.60
2022-08-09T04:07:53.319Z,16.60
2022-08-09T04:10:29.315Z,16.70
2022-08-09T04:13:04.057Z,16.70
2022-08-09T04:16:17.986Z,16.80
2022-08-09T04:18:24.964Z,16.80
2022-08-09T04:20:54.353Z,16.90
2022-08-09T04:23:25.853Z,16.90
2022-08-09T04:25:55.880Z,16.90
2022-08-09T04:28:33.526Z,17.00
2022-08-09T04:31:07.958Z,17.00
2022-08-09T04:33:51.394Z,17.10
2022-08-09T04:36:25.303Z,17.10
2022-08-09T04:38:57.303Z,17.10
2022-08-09T04:41:32.343Z,17.30
2022-08-09T04:44:06.762Z,17.50
2022-08-09T04:46:57.455Z,17.70
2022-08-09T04:49:53.708Z,18.00
2022-08-09T04:52:26.645Z,18.30
2022-08-09T04:54:59.620Z,18.60
2022-08-09T04:57:58.814Z,18.90
2022-08-09T05:00:18.041Z,19.30
2022-08-09T05:02:48.531Z,19.70
2022-08-09T05:05:31.718Z,20.10
2022-08-09T05:08:14.099Z,20.50
2022-08-09T05:10:46.185Z,20.90
2022-08-09T05:13:15.292Z,21.30
2022-08-09T05:15:48.238Z,21.80
2022-08-09T05:18:39.272Z,22.10
2022-08-09T05:21:23.280Z,22.50
2022-08-09T05:24:01.482Z,22.70
2022-08-09T05:26:45.442Z,23.00
2022-08-09T05:29:22.149Z,23.20
2022-08-09T05:31:56.788Z,23.50
2022-08-09T05:34:31.011Z,23.70
2022-08-09T05:37:06.128Z,24.00
2022-08-09T05:39:42.877Z,24.20
2022-08-09T05:42:17.294Z,24.40
2022-08-09T05:44:51.997Z,24.60
2022-08-09T05:47:22.562Z,24.70
2022-08-09T05:50:30.773Z,25.00
2022-08-09T05:52:42.046Z,25.10
2022-08-09T05:55:20.975Z,25.30
2022-08-09T05:57:56.847Z,25.50
2022-08-09T06:00:28.931Z,25.70
2022-08-09T06:02:59.040Z,26.00
2022-08-09T06:05:31.295Z,26.30
2022-08-09T06:08:19.772Z,26.50
2022-08-09T06:10:55.251Z,26.80
2022-08-09T06:13:28.409Z,27.00
2022-08-09T06:16:04.899Z,27.20
2022-08-09T06:18:35.100Z,27.40
2022-08-09T06:21:06.665Z,27.60
2022-08-09T06:23:57.901Z,27.80
2022-08-09T06:26:28.149Z,27.90
2022-08-09T06:29:04.726Z,28.20
2022-08-09T06:31:39.778Z,28.40
2022-08-09T06:34:26.014Z,28.50
2022-08-09T06:36:57.476Z,28.60
2022-08-09T06:39:48.095Z,28.70
2022-08-09T06:42:19.813Z,28.90
2022-08-09T06:44:51.808Z,29.10
2022-08-09T06:47:24.020Z,29.30
2022-08-09T06:50:13.742Z,29.40
2022-08-09T06:52:46.930Z,29.60
2022-08-09T06:55:16.633Z,29.80
2022-08-09T06:58:01.558Z,30.00
2022-08-09T07:00:50.169Z,30.20
2022-08-09T07:03:27.629Z,30.40
2022-08-09T07:06:03.833Z,30.50
2022-08-09T07:08:35.332Z,30.70
2022-08-09T07:11:07.157Z,30.90
2022-08-09T07:13:45.444Z,31.00
2022-08-09T07:16:42.208Z,31.10
2022-08-09T07:19:18.812Z,31.30
2022-08-09T07:21:57.882Z,31.50
2022-08-09T07:24:32.389Z,31.70
2022-08-09T07:27:11.096Z,32.00
2022-08-09T07:29:56.867Z,32.20
2022-08-09T07:32:32.204Z,32.50
2022-08-09T07:35:08.160Z,32.70
2022-08-09T07:37:44.525Z,32.70
2022-08-09T07:40:17.146Z,32.80
2022-08-09T07:42:55.760Z,33.00
2022-08-09T07:45:38.027Z,33.20
2022-08-09T07:48:22.523Z,33.40
2022-08-09T07:51:09.329Z,33.70
2022-08-09T07:54:06.770Z,34.00
2022-08-09T07:56:38.885Z,34.40
2022-08-09T07:59:25.681Z,34.60
2022-08-09T08:02:03.329Z,35.00
2022-08-09T08:04:37.786Z,35.30
2022-08-09T08:07:27.194Z,35.50
2022-08-09T08:10:08.847Z,35.50
2022-08-09T08:12:45.138Z,35.50
2022-08-09T08:15:17.061Z,35.60
2022-08-09T08:17:52.940Z,35.70
2022-08-09T08:20:30.356Z,35.80
2022-08-09T08:23:06.951Z,36.00
2022-08-09T08:25:49.835Z,36.20
2022-08-09T08:28:25.763Z,36.40
2022-08-09T08:31:04.913Z,36.50
2022-08-09T08:33:52.143Z,36.50
2022-08-09T08:36:29.570Z,36.40
2022-08-09T08:39:00.578Z,36.40
2022-08-09T08:41:50.306Z,36.40
2022-08-09T08:44:27.259Z,36.40
2022-08-09T08:47:02.654Z,36.40
2022-08-09T08:49:38.444Z,36.60
2022-08-09T08:55:08.671Z,37.10
2022-08-09T08:57:38.051Z,37.30
2022-08-09T09:00:17.132Z,37.50
2022-08-09T09:02:52.382Z,37.70
2022-08-09T09:05:57.600Z,37.80
2022-08-09T09:08:29.380Z,37.80
2022-08-09T09:11:02.606Z,37.70
2022-08-09T09:13:41.615Z,37.80
2022-08-09T09:16:29.775Z,37.70
2022-08-09T09:19:37.149Z,37.90
2022-08-09T09:22:08.021Z,38.10
2022-08-09T09:24:43.978Z,38.40
2022-08-09T09:28:04.363Z,38.60
2022-08-09T09:30:38.171Z,38.80
2022-08-09T09:33:16.554Z,38.90
2022-08-09T09:36:02.707Z,38.80
2022-08-09T09:38:47.200Z,38.90
2022-08-09T09:41:48.658Z,38.90
2022-08-09T09:44:27.892Z,39.00
2022-08-09T09:47:07.639Z,39.10
2022-08-09T09:49:56.202Z,39.20
2022-08-09T09:52:48.077Z,39.30
2022-08-09T09:55:27.851Z,39.60
2022-08-09T09:58:17.318Z,39.80
2022-08-09T10:00:54.399Z,39.80
2022-08-09T10:03:57.504Z,39.80
2022-08-09T10:06:32.070Z,39.70
2022-08-09T10:09:11.932Z,39.60
2022-08-09T10:12:11.764Z,39.60
2022-08-09T10:14:47.868Z,39.70
2022-08-09T10:17:51.284Z,39.80
2022-08-09T10:20:27.302Z,39.80
2022-08-09T10:23:17.239Z,39.80
2022-08-09T10:26:07.754Z,39.80
2022-08-09T10:28:41.284Z,39.80
2022-08-09T10:34:09.123Z,40.20
2022-08-09T10:36:45.153Z,40.50
2022-08-09T10:39:18.331Z,40.90
2022-08-09T10:41:48.551Z,41.20
2022-08-09T10:44:21.669Z,41.40
2022-08-09T10:48:16.782Z,41.60
2022-08-09T10:50:58.192Z,41.50
2022-08-09T10:53:46.793Z,41.30
2022-08-09T10:56:24.675Z,41.20
2022-08-09T10:58:56.093Z,41.20
2022-08-09T11:03:18.429Z,41.30
2022-08-09T11:04:32.860Z,41.40
2022-08-09T11:07:57.038Z,41.30
2022-08-09T11:10:56.380Z,41.40
2022-08-09T11:13:51.295Z,41.10
2022-08-09T11:16:40.768Z,40.80
2022-08-09T11:19:11.433Z,40.80
2022-08-09T11:22:10.413Z,41.00
2022-08-09T11:25:09.864Z,41.20
2022-08-09T11:28:04.751Z,41.10
2022-08-09T11:30:36.533Z,40.80
2022-08-09T11:33:10.634Z,40.00
2022-08-09T11:35:50.249Z,39.20
2022-08-09T11:38:32.047Z,38.50
2022-08-09T11:41:37.629Z,37.80
2022-08-09T11:44:07.839Z,37.10
2022-08-09T11:46:57.240Z,36.40
2022-08-09T11:50:53.273Z,36.00
2022-08-09T11:53:59.408Z,35.60
2022-08-09T11:56:41.855Z,35.60
2022-08-09T11:59:14.401Z,36.20
2022-08-09T12:02:17.577Z,36.90
2022-08-09T12:04:37.923Z,37.60
2022-08-09T12:07:07.658Z,38.30
2022-08-09T12:09:38.813Z,38.80
2022-08-09T12:12:13.130Z,39.40
2022-08-09T12:15:03.992Z,39.60
2022-08-09T12:17:42.797Z,39.80
2022-08-09T12:20:16.655Z,40.00
2022-08-09T12:22:51.458Z,40.50
2022-08-09T12:25:34.677Z,41.00
2022-08-09T12:29:11.580Z,41.70
2022-08-09T12:31:10.755Z,42.40
2022-08-09T12:34:00.738Z,43.10
2022-08-09T12:36:33.776Z,43.50
2022-08-09T12:39:04.277Z,43.50
2022-08-09T12:41:40.016Z,43.20
2022-08-09T12:44:13.063Z,43.00
2022-08-09T12:46:49.356Z,43.20
2022-08-09T12:49:20.881Z,43.50
2022-08-09T12:52:02.454Z,43.90
2022-08-09T12:54:47.015Z,44.40
2022-08-09T12:57:46.496Z,44.50
2022-08-09T13:00:19.245Z,44.80
2022-08-09T13:02:57.499Z,45.00
2022-08-09T13:05:52.635Z,45.20
2022-08-09T13:08:40.291Z,45.50
2022-08-09T13:11:23.360Z,45.70
2022-08-09T13:14:37.925Z,45.90
2022-08-09T13:16:50.336Z,45.70
2022-08-09T13:20:08.865Z,46.10
2022-08-09T13:22:38.384Z,46.50
2022-08-09T13:25:12.138Z,46.70
2022-08-09T13:27:54.433Z,46.80
2022-08-09T13:30:49.164Z,46.80
2022-08-09T13:33:24.830Z,46.90
2022-08-09T13:36:24.139Z,47.00
2022-08-09T13:39:30.724Z,47.10
2022-08-09T13:42:00.767Z,46.80
2022-08-09T13:44:31.147Z,46.60
2022-08-09T13:47:27.490Z,46.50
2022-08-09T13:49:57.569Z,46.10
2022-08-09T13:52:30.195Z,45.80
2022-08-09T13:55:04.567Z,45.20
2022-08-09T13:57:39.886Z,44.60
2022-08-09T14:00:15.523Z,44.40
2022-08-09T14:03:04.264Z,44.10
2022-08-09T14:05:58.480Z,43.90
2022-08-09T14:08:28.401Z,43.80
2022-08-09T14:10:59.517Z,43.40
2022-08-09T14:14:23.469Z,42.90
2022-08-09T14:16:28.583Z,42.40
2022-08-09T14:18:59.485Z,41.60
2022-08-09T14:21:29.011Z,40.80
2022-08-09T14:24:05.574Z,40.00
2022-08-09T14:26:51.766Z,39.20
2022-08-09T14:30:03.961Z,38.50
2022-08-09T14:32:13.352Z,37.90
2022-08-09T14:34:46.694Z,37.30
2022-08-09T14:37:28.511Z,36.80
2022-08-09T14:39:57.611Z,36.30
2022-08-09T14:42:30.357Z,36.00
2022-08-09T14:46:40.436Z,35.70
2022-08-09T14:47:58.686Z,35.40
2022-08-09T14:50:36.914Z,35.00
2022-08-09T14:53:11.297Z,34.60
2022-08-09T14:55:42.431Z,34.50
2022-08-09T14:58:17.129Z,34.30
2022-08-09T15:00:48.244Z,34.00
2022-08-09T15:03:24.985Z,33.80
2022-08-09T15:06:00.144Z,33.50
2022-08-09T15:08:32.759Z,33.30
2022-08-09T15:11:04.990Z,33.00
2022-08-09T15:13:48.532Z,32.80
2022-08-09T15:16:30.345Z,32.60
2022-08-09T15:19:05.821Z,32.50
2022-08-09T15:22:01.284Z,32.40
2022-08-09T15:24:31.030Z,32.20
2022-08-09T15:26:59.879Z,32.20
2022-08-09T15:30:56.162Z,32.00
2022-08-09T15:32:29.627Z,32.00
2022-08-09T15:35:01.195Z,32.00
2022-08-09T15:37:56.187Z,32.00
2022-08-09T15:40:32.329Z,32.00
2022-08-09T15:43:02.979Z,32.00
2022-08-09T15:46:08.084Z,32.00
2022-08-09T15:48:28.885Z,32.00
2022-08-09T15:50:58.856Z,32.00
2022-08-09T15:54:05.187Z,31.80
2022-08-09T15:56:24.051Z,31.80
2022-08-09T15:59:00.121Z,31.70
2022-08-09T16:01:35.369Z,31.60
2022-08-09T16:04:05.841Z,31.60
2022-08-09T16:06:44.542Z,31.60
2022-08-09T16:09:15.043Z,31.50
2022-08-09T16:11:57.097Z,31.50
2022-08-09T16:14:31.733Z,31.50
2022-08-09T16:17:01.723Z,31.50
2022-08-09T16:19:30.562Z,31.50
2022-08-09T16:22:05.925Z,31.40
2022-08-09T16:24:45.088Z,31.40
2022-08-09T16:27:26.120Z,31.40
2022-08-09T16:30:01.145Z,31.20
2022-08-09T16:32:49.535Z,31.20
2022-08-09T16:35:55.692Z,31.10
2022-08-09T16:38:11.527Z,31.10
2022-08-09T16:40:41.946Z,31.00
2022-08-09T16:43:10.947Z,30.90
2022-08-09T16:45:44.360Z,30.80
2022-08-09T16:48:42.027Z,30.70
2022-08-09T16:51:08.230Z,30.50
2022-08-09T16:54:08.856Z,30.40
2022-08-09T16:56:34.212Z,30.30
2022-08-09T16:59:06.895Z,30.20
2022-08-09T17:01:39.900Z,30.10
2022-08-09T17:04:20.072Z,30.00
2022-08-09T17:08:46.138Z,29.90
2022-08-09T17:09:47.816Z,29.80
2022-08-09T17:12:23.472Z,29.70
2022-08-09T17:15:02.182Z,29.60
2022-08-09T17:17:51.598Z,29.50
2022-08-09T17:20:37.009Z,29.40
2022-08-09T17:23:10.475Z,29.30
2022-08-09T17:25:43.705Z,29.20
2022-08-09T17:28:14.223Z,29.10
2022-08-09T17:30:47.749Z,29.00
2022-08-09T17:33:22.300Z,28.80
2022-08-09T17:35:52.168Z,28.80
2022-08-09T17:38:34.115Z,28.70
2022-08-09T17:41:06.114Z,28.60
2022-08-09T17:43:38.008Z,28.50
2022-08-09T17:46:09.203Z,28.40
2022-08-09T17:48:52.106Z,28.30
2022-08-09T17:51:22.265Z,28.20
2022-08-09T17:53:55.176Z,28.00
2022-08-09T17:56:28.446Z,28.00
2022-08-09T17:59:11.479Z,27.90
2022-08-09T18:02:07.877Z,27.80
2022-08-09T18:04:34.610Z,27.70
2022-08-09T18:07:07.647Z,27.60
2022-08-09T18:09:41.823Z,27.50
2022-08-09T18:12:15.379Z,27.40
2022-08-09T18:14:53.601Z,27.20
2022-08-09T18:17:27.382Z,27.00
2022-08-09T18:20:53.884Z,26.80
2022-08-09T18:23:05.106Z,26.60
2022-08-09T18:25:50.695Z,26.40
2022-08-09T18:30:36.194Z,26.20
2022-08-09T18:31:14.387Z,26.00
2022-08-09T18:33:53.005Z,25.80
2022-08-09T18:36:31.822Z,25.60
2022-08-09T18:39:02.823Z,25.40
2022-08-09T18:41:34.313Z,25.30
2022-08-09T18:44:12.507Z,25.10
2022-08-09T18:46:47.909Z,25.00
2022-08-09T18:49:41.471Z,24.80
2022-08-09T18:52:13.246Z,24.70
2022-08-09T18:54:49.714Z,24.50
2022-08-09T18:57:23.105Z,24.40
2022-08-09T18:59:55.561Z,24.30
2022-08-09T19:02:32.097Z,24.30
2022-08-09T19:05:03.884Z,24.20
2022-08-09T19:08:04.249Z,24.00
2022-08-09T19:10:37.894Z,24.00
2022-08-09T19:13:22.998Z,23.90
2022-08-09T19:16:01.090Z,23.80
2022-08-09T19:18:33.159Z,23.70
2022-08-09T19:21:09.744Z,23.60
2022-08-09T19:24:32.072Z,23.60
2022-08-09T19:26:32.069Z,23.50
2022-08-09T19:29:03.395Z,23.40
2022-08-09T19:31:45.657Z,23.40
2022-08-09T19:34:21.728Z,23.30
2022-08-09T19:36:52.950Z,23.30
2022-08-09T19:39:43.012Z,23.20
2022-08-09T19:42:14.578Z,23.10
2022-08-09T19:44:44.407Z,23.10
2022-08-09T19:47:23.018Z,23.00
2022-08-09T19:50:06.678Z,23.00
2022-08-09T19:52:49.258Z,22.90
2022-08-09T19:55:30.667Z,22.90
2022-08-09T19:58:16.722Z,22.80
2022-08-09T20:00:47.292Z,22.80
2022-08-09T20:04:18.113Z,22.70
2022-08-09T20:06:23.086Z,22.70
2022-08-09T20:08:56.773Z,22.60
2022-08-09T20:11:26.945Z,22.60
2022-08-09T20:13:56.753Z,22.60
2022-08-09T20:16:32.802Z,22.60
2022-08-09T20:19:49.653Z,22.60
2022-08-09T20:22:09.937Z,22.60
2022-08-09T20:24:40.680Z,22.60
2022-08-09T20:27:11.630Z,22.60
2022-08-09T20:29:42.961Z,22.60
2022-08-09T20:32:31.175Z,22.50
2022-08-09T20:35:02.342Z,22.50
2022-08-09T20:37:37.763Z,22.50
2022-08-09T20:40:27.293Z,22.50
2022-08-09T20:43:00.473Z,22.50
2022-08-09T20:46:00.753Z,22.50
2022-08-09T20:48:38.474Z,22.50
2022-08-09T20:51:16.681Z,22.50
2022-08-09T20:53:50.100Z,22.50
2022-08-09T20:56:21.812Z,22.50
2022-08-09T20:58:54.502Z,22.50
2022-08-09T21:01:35.174Z,22.50
2022-08-09T21:05:53.880Z,22.50
2022-08-09T21:07:13.220Z,22.50
2022-08-09T21:09:56.550Z,22.50
2022-08-09T21:15:34.766Z,22.50
2022-08-09T21:18:11.943Z,22.50
2022-08-09T21:20:55.974Z,22.50
2022-08-09T21:23:36.111Z,22.50
2022-08-09T21:26:15.859Z,22.50
2022-08-09T21:28:55.423Z,22.50
2022-08-09T21:31:49.284Z,22.40
2022-08-09T21:34:17.098Z,22.40
2022-08-09T21:36:57.855Z,22.40
2022-08-09T21:39:28.183Z,22.40
2022-08-09T21:42:12.814Z,22.40
2022-08-09T21:44:42.756Z,22.30
2022-08-09T21:47:17.585Z,22.30
2022-08-09T21:49:48.352Z,22.20
2022-08-09T21:52:20.658Z,22.20
2022-08-09T21:55:03.224Z,22.20
2022-08-09T21:57:39.218Z,22.10
2022-08-09T22:00:31.643Z,22.10
2022-08-09T22:03:04.837Z,22.10
2022-08-09T22:05:37.217Z,22.00
2022-08-09T22:08:12.987Z,22.00
2022-08-09T22:11:49.108Z,22.00
2022-08-09T22:13:36.843Z,21.90
2022-08-09T22:16:08.655Z,21.80
2022-08-09T22:18:53.388Z,21.70
2022-08-09T22:21:27.231Z,21.70
2022-08-09T22:23:58.870Z,21.60
2022-08-09T22:26:34.845Z,21.60
2022-08-09T22:29:09.988Z,21.60
2022-08-09T22:31:44.098Z,21.50
2022-08-09T22:34:14.851Z,21.40
2022-08-09T22:36:46.362Z,21.40
2022-08-09T22:39:46.669Z,21.30
2022-08-09T22:42:16.264Z,21.30
2022-08-09T22:48:06.112Z,21.20
2022-08-09T22:48:34.323Z,21.20
2022-08-09T22:50:31.985Z,21.20
2022-08-09T22:53:03.572Z,21.10
2022-08-09T22:56:06.030Z,21.10
2022-08-09T22:58:33.062Z,21.10
2022-08-09T23:01:06.130Z,21.10
2022-08-09T23:04:04.183Z,21.10
2022-08-09T23:06:35.142Z,21.10
2022-08-09T23:09:05.830Z,21.00
2022-08-09T23:11:34.706Z,21.10
2022-08-09T23:14:09.623Z,21.00
2022-08-09T23:16:47.371Z,21.10
2022-08-09T23:19:16.189Z,21.10
2022-08-09T23:21:45.064Z,21.00
2022-08-09T23:24:14.163Z,21.00
2022-08-09T23:26:43.462Z,21.00
2022-08-09T23:29:14.129Z,21.00
2022-08-09T23:31:43.458Z,21.00
2022-08-09T23:34:13.664Z,21.00
2022-08-09T23:36:43.423Z,20.90
2022-08-09T23:39:12.347Z,20.90
2022-08-09T23:41:41.243Z,20.90
2022-08-09T23:44:10.067Z,20.80
2022-08-09T23:46:39.126Z,20.80
2022-08-09T23:49:07.904Z,20.70
2022-08-09T23:51:38.415Z,20.60
2022-08-09T23:54:07.617Z,20.60
2022-08-09T23:56:40.020Z,20.50
2022-08-09T23:59:25.050Z,20.40
